sensor_id;sensor_type;location;lat;lon;timestamp;pressure;altitude;pressure_sealevel;temperature;humidity
31761;BME280;18335;51.486;7.562;2022-08-19T00:00:15;99942.94;;;17.20;100.00
31761;BME280;18335;51.486;7.562;2022-08-19T00:02:42;99944.84;;;17.12;100.00
31761;BME280;18335;51.486;7.562;2022-08-19T00:05:10;99952.25;;;17.19;100.00
31761;BME280;18335;51.486;7.562;2022-08-19T00:07:37;99953.53;;;17.29;100.00
31761;BME280;18335;51.486;7.562;2022-08-19T00:10:07;99957.78;;;17.25;100.00
31761;BME280;18335;51.486;7.562;2022-08-19T00:12:34;99964.75;;;17.28;100.00
31761;BME280;18335;51.486;7.562;2022-08-19T00:15:03;99965.63;;;17.08;100.00
31761;BME280;18335;51.486;7.562;2022-08-19T00:17:30;99968.63;;;17.07;100.00
31761;BME280;18335;51.486;7.562;2022-08-19T00:19:57;99961.63;;;16.98;100.00
31761;BME280;18335;51.486;7.562;2022-08-19T00:22:24;99964.81;;;17.08;100.00
31761;BME280;18335;51.486;7.562;2022-08-19T00:24:52;99960.34;;;17.07;100.00
31761;BME280;18335;51.486;7.562;2022-08-19T00:27:20;99961.19;;;17.01;100.00
31761;BME280;18335;51.486;7.562;2022-08-19T00:29:47;99955.06;;;16.99;100.00
31761;BME280;18335;51.486;7.562;2022-08-19T00:32:13;99967.38;;;16.90;100.00
31761;BME280;18335;51.486;7.562;2022-08-19T00:34:40;99964.19;;;16.93;100.00
31761;BME280;18335;51.486;7.562;2022-08-19T00:37:07;99969.28;;;16.96;100.00
31761;BME280;18335;51.486;7.562;2022-08-19T00:39:33;99959.72;;;16.85;100.00
31761;BME280;18335;51.486;7.562;2022-08-19T00:42:00;99962.47;;;16.79;100.00
31761;BME280;18335;51.486;7.562;2022-08-19T00:44:29;99966.50;;;16.83;100.00
31761;BME280;18335;51.486;7.562;2022-08-19T00:46:58;99961.22;;;16.75;100.00
31761;BME280;18335;51.486;7.562;2022-08-19T00:49:28;99965.03;;;16.74;100.00
31761;BME280;18335;51.486;7.562;2022-08-19T00:52:00;99973.28;;;16.67;100.00
31761;BME280;18335;51.486;7.562;2022-08-19T00:54:28;99962.69;;;16.77;100.00
31761;BME280;18335;51.486;7.562;2022-08-19T00:56:57;99973.72;;;16.84;100.00
31761;BME280;18335;51.486;7.562;2022-08-19T00:59:24;99956.53;;;16.82;100.00
31761;BME280;18335;51.486;7.562;2022-08-19T01:01:53;99964.59;;;16.77;100.00
31761;BME280;18335;51.486;7.562;2022-08-19T01:04:20;99966.94;;;16.67;100.00
31761;BME280;18335;51.486;7.562;2022-08-19T01:06:46;99957.59;;;16.68;100.00
31761;BME280;18335;51.486;7.562;2022-08-19T01:09:13;99973.28;;;16.74;100.00
31761;BME280;18335;51.486;7.562;2022-08-19T01:11:41;99976.28;;;16.66;100.00
31761;BME280;18335;51.486;7.562;2022-08-19T01:14:09;99976.69;;;16.69;100.00
31761;BME280;18335;51.486;7.562;2022-08-19T01:16:37;99983.03;;;16.70;100.00
31761;BME280;18335;51.486;7.562;2022-08-19T01:19:12;99976.47;;;16.71;100.00
31761;BME280;18335;51.486;7.562;2022-08-19T01:21:48;99977.13;;;16.66;100.00
31761;BME280;18335;51.486;7.562;2022-08-19T01:24:19;99970.97;;;16.71;100.00
31761;BME280;18335;51.486;7.562;2022-08-19T01:26:47;99964.38;;;16.58;100.00
31761;BME280;18335;51.486;7.562;2022-08-19T01:29:14;99967.16;;;16.65;100.00
31761;BME280;18335;51.486;7.562;2022-08-19T01:31:41;99967.81;;;16.61;100.00
31761;BME280;18335;51.486;7.562;2022-08-19T01:34:08;99962.28;;;16.61;100.00
31761;BME280;18335;51.486;7.562;2022-08-19T01:36:38;99967.31;;;16.44;100.00
31761;BME280;18335;51.486;7.562;2022-08-19T01:39:09;99965.00;;;16.47;100.00
31761;BME280;18335;51.486;7.562;2022-08-19T01:41:39;99963.53;;;16.51;100.00
31761;BME280;18335;51.486;7.562;2022-08-19T01:44:07;99957.78;;;16.46;100.00
31761;BME280;18335;51.486;7.562;2022-08-19T01:46:35;99967.72;;;16.41;100.00
31761;BME280;18335;51.486;7.562;2022-08-19T01:49:03;99963.69;;;16.24;100.00
31761;BME280;18335;51.486;7.562;2022-08-19T01:51:30;99962.63;;;16.38;100.00
31761;BME280;18335;51.486;7.562;2022-08-19T01:53:58;99962.16;;;16.08;100.00
31761;BME280;18335;51.486;7.562;2022-08-19T01:56:25;99959.84;;;16.25;100.00
31761;BME280;18335;51.486;7.562;2022-08-19T01:58:56;99952.03;;;16.28;100.00
31761;BME280;18335;51.486;7.562;2022-08-19T02:01:24;99947.38;;;16.35;100.00
31761;BME280;18335;51.486;7.562;2022-08-19T02:03:51;99950.78;;;16.24;100.00
31761;BME280;18335;51.486;7.562;2022-08-19T02:06:19;99948.25;;;16.36;100.00
31761;BME280;18335;51.486;7.562;2022-08-19T02:08:46;99943.13;;;16.26;100.00
31761;BME280;18335;51.486;7.562;2022-08-19T02:11:19;99946.53;;;16.15;100.00
31761;BME280;18335;51.486;7.562;2022-08-19T02:13:47;99953.72;;;16.10;100.00
31761;BME280;18335;51.486;7.562;2022-08-19T02:16:16;99954.78;;;16.15;100.00
31761;BME280;18335;51.486;7.562;2022-08-19T02:18:43;99948.19;;;16.16;100.00
31761;BME280;18335;51.486;7.562;2022-08-19T02:21:10;99943.34;;;16.31;100.00
31761;BME280;18335;51.486;7.562;2022-08-19T02:23:38;99951.84;;;16.30;100.00
31761;BME280;18335;51.486;7.562;2022-08-19T02:26:05;99957.31;;;16.23;100.00
31761;BME280;18335;51.486;7.562;2022-08-19T02:28:32;99962.19;;;16.28;100.00
31761;BME280;18335;51.486;7.562;2022-08-19T02:30:58;99969.41;;;16.29;100.00
31761;BME280;18335;51.486;7.562;2022-08-19T02:33:29;99970.25;;;16.29;100.00
31761;BME280;18335;51.486;7.562;2022-08-19T02:35:56;99965.59;;;16.30;100.00
31761;BME280;18335;51.486;7.562;2022-08-19T02:38:22;99960.06;;;16.23;100.00
31761;BME280;18335;51.486;7.562;2022-08-19T02:40:52;99959.88;;;16.18;100.00
31761;BME280;18335;51.486;7.562;2022-08-19T02:43:20;99956.91;;;16.26;100.00
31761;BME280;18335;51.486;7.562;2022-08-19T02:45:47;99950.78;;;16.24;100.00
31761;BME280;18335;51.486;7.562;2022-08-19T02:48:15;99965.59;;;16.23;100.00
31761;BME280;18335;51.486;7.562;2022-08-19T02:50:44;99950.13;;;16.22;100.00
31761;BME280;18335;51.486;7.562;2022-08-19T02:53:11;99955.88;;;16.27;100.00
31761;BME280;18335;51.486;7.562;2022-08-19T02:55:43;99949.94;;;16.30;100.00
31761;BME280;18335;51.486;7.562;2022-08-19T02:58:10;99956.28;;;16.24;100.00
31761;BME280;18335;51.486;7.562;2022-08-19T03:00:41;99962.63;;;16.18;100.00
31761;BME280;18335;51.486;7.562;2022-08-19T03:03:09;99956.66;;;16.08;100.00
31761;BME280;18335;51.486;7.562;2022-08-19T03:05:36;99957.69;;;16.07;100.00
31761;BME280;18335;51.486;7.562;2022-08-19T03:08:05;99954.09;;;16.00;100.00
31761;BME280;18335;51.486;7.562;2022-08-19T03:10:31;99967.47;;;16.16;100.00
31761;BME280;18335;51.486;7.562;2022-08-19T03:12:58;99965.56;;;16.17;100.00
31761;BME280;18335;51.486;7.562;2022-08-19T03:15:25;99969.81;;;16.19;100.00
31761;BME280;18335;51.486;7.562;2022-08-19T03:17:51;99966.00;;;16.20;100.00
31761;BME280;18335;51.486;7.562;2022-08-19T03:20:19;99959.19;;;16.16;100.00
31761;BME280;18335;51.486;7.562;2022-08-19T03:22:46;99959.19;;;16.16;100.00
31761;BME280;18335;51.486;7.562;2022-08-19T03:25:14;99956.44;;;16.16;100.00
31761;BME280;18335;51.486;7.562;2022-08-19T03:27:41;99960.69;;;16.05;100.00
31761;BME280;18335;51.486;7.562;2022-08-19T03:30:09;99963.00;;;16.02;100.00
31761;BME280;18335;51.486;7.562;2022-08-19T03:32:36;99964.31;;;16.13;100.00
31761;BME280;18335;51.486;7.562;2022-08-19T03:35:03;99970.63;;;16.07;100.00
31761;BME280;18335;51.486;7.562;2022-08-19T03:37:30;99971.03;;;16.10;100.00
31761;BME280;18335;51.486;7.562;2022-08-19T03:39:56;99963.84;;;16.02;100.00
31761;BME280;18335;51.486;7.562;2022-08-19T03:42:24;99971.16;;;15.76;100.00
31761;BME280;18335;51.486;7.562;2022-08-19T03:44:52;99977.38;;;15.97;100.00
31761;BME280;18335;51.486;7.562;2022-08-19T03:47:19;99976.16;;;16.07;100.00
31761;BME280;18335;51.486;7.562;2022-08-19T03:49:46;99980.13;;;16.04;100.00
31761;BME280;18335;51.486;7.562;2022-08-19T03:52:13;99975.28;;;16.06;100.00
31761;BME280;18335;51.486;7.562;2022-08-19T03:54:39;99978.66;;;16.01;100.00
31761;BME280;18335;51.486;7.562;2022-08-19T03:57:06;99982.88;;;15.97;100.00
31761;BME280;18335;51.486;7.562;2022-08-19T03:59:37;99982.06;;;16.03;100.00
31761;BME280;18335;51.486;7.562;2022-08-19T04:02:07;99984.78;;;15.97;100.00
31761;BME280;18335;51.486;7.562;2022-08-19T04:04:34;99985.41;;;15.99;100.00
31761;BME280;18335;51.486;7.562;2022-08-19T04:07:02;99988.56;;;15.83;100.00
31761;BME280;18335;51.486;7.562;2022-08-19T04:09:29;99983.50;;;15.93;100.00
31761;BME280;18335;51.486;7.562;2022-08-19T04:11:57;99993.66;;;15.86;100.00
31761;BME280;18335;51.486;7.562;2022-08-19T04:14:26;99996.41;;;15.86;100.00
31761;BME280;18335;51.486;7.562;2022-08-19T04:16:55;99995.31;;;15.87;100.00
31761;BME280;18335;51.486;7.562;2022-08-19T04:19:22;99992.53;;;15.80;100.00
31761;BME280;18335;51.486;7.562;2022-08-19T04:21:51;99978.38;;;15.83;100.00
31761;BME280;18335;51.486;7.562;2022-08-19T04:24:19;99984.28;;;15.80;100.00
31761;BME280;18335;51.486;7.562;2022-08-19T04:26:47;99975.63;;;15.77;100.00
31761;BME280;18335;51.486;7.562;2022-08-19T04:29:16;99985.34;;;15.79;100.00
31761;BME280;18335;51.486;7.562;2022-08-19T04:31:44;99989.81;;;15.87;100.00
31761;BME280;18335;51.486;7.562;2022-08-19T04:34:14;99993.75;;;15.71;100.00
31761;BME280;18335;51.486;7.562;2022-08-19T04:36:43;99997.13;;;15.67;100.00
31761;BME280;18335;51.486;7.562;2022-08-19T04:39:11;100002.66;;;15.67;100.00
31761;BME280;18335;51.486;7.562;2022-08-19T04:41:38;99996.81;;;15.83;100.00
31761;BME280;18335;51.486;7.562;2022-08-19T04:44:23;99999.97;;;15.86;100.00
31761;BME280;18335;51.486;7.562;2022-08-19T04:46:50;100002.31;;;15.83;100.00
31761;BME280;18335;51.486;7.562;2022-08-19T04:49:20;100000.19;;;15.85;100.00
31761;BME280;18335;51.486;7.562;2022-08-19T04:51:48;99999.72;;;15.75;100.00
31761;BME280;18335;51.486;7.562;2022-08-19T04:54:16;100002.72;;;15.80;100.00
31761;BME280;18335;51.486;7.562;2022-08-19T04:56:48;99998.47;;;15.84;100.00
31761;BME280;18335;51.486;7.562;2022-08-19T04:59:16;100019.91;;;15.95;100.00
31761;BME280;18335;51.486;7.562;2022-08-19T05:01:44;100015.44;;;15.87;100.00
31761;BME280;18335;51.486;7.562;2022-08-19T05:04:16;100009.53;;;15.90;100.00
31761;BME280;18335;51.486;7.562;2022-08-19T05:06:46;100011.00;;;15.93;100.00
31761;BME280;18335;51.486;7.562;2022-08-19T05:09:15;100012.94;;;15.99;100.00
31761;BME280;18335;51.486;7.562;2022-08-19T05:11:42;100013.16;;;16.04;100.00
31761;BME280;18335;51.486;7.562;2022-08-19T05:14:10;100014.91;;;16.18;100.00
31761;BME280;18335;51.486;7.562;2022-08-19T05:16:39;100017.44;;;16.13;100.00
31761;BME280;18335;51.486;7.562;2022-08-19T05:19:06;100012.81;;;16.20;100.00
31761;BME280;18335;51.486;7.562;2022-08-19T05:21:52;100008.78;;;16.23;100.00
31761;BME280;18335;51.486;7.562;2022-08-19T05:24:36;100013.88;;;16.26;100.00
31761;BME280;18335;51.486;7.562;2022-08-19T05:27:04;100021.53;;;16.30;100.00
31761;BME280;18335;51.486;7.562;2022-08-19T05:29:32;100028.50;;;16.33;100.00
31761;BME280;18335;51.486;7.562;2022-08-19T05:32:00;100025.97;;;16.38;100.00
31761;BME280;18335;51.486;7.562;2022-08-19T05:34:27;100032.56;;;16.43;100.00
31761;BME280;18335;51.486;7.562;2022-08-19T05:36:57;100033.84;;;16.47;100.00
31761;BME280;18335;51.486;7.562;2022-08-19T05:39:26;100038.13;;;16.56;100.00
31761;BME280;18335;51.486;7.562;2022-08-19T05:41:55;100042.38;;;16.66;100.00
31761;BME280;18335;51.486;7.562;2022-08-19T05:44:25;100031.59;;;16.77;100.00
31761;BME280;18335;51.486;7.562;2022-08-19T05:46:52;100033.06;;;16.80;100.00
31761;BME280;18335;51.486;7.562;2022-08-19T05:49:21;100036.25;;;16.77;100.00
31761;BME280;18335;51.486;7.562;2022-08-19T05:51:49;100044.09;;;16.80;100.00
31761;BME280;18335;51.486;7.562;2022-08-19T05:54:17;100042.59;;;16.77;100.00
31761;BME280;18335;51.486;7.562;2022-08-19T05:56:45;100037.75;;;16.92;100.00
31761;BME280;18335;51.486;7.562;2022-08-19T05:59:14;100033.06;;;17.06;100.00
31761;BME280;18335;51.486;7.562;2022-08-19T06:01:42;100026.28;;;17.15;100.00
31761;BME280;18335;51.486;7.562;2022-08-19T06:04:10;100024.16;;;17.24;100.00
31761;BME280;18335;51.486;7.562;2022-08-19T06:06:36;100034.94;;;17.51;100.00
31761;BME280;18335;51.486;7.562;2022-08-19T06:09:04;100044.69;;;17.54;100.00
31761;BME280;18335;51.486;7.562;2022-08-19T06:11:35;100037.06;;;17.49;100.00
31761;BME280;18335;51.486;7.562;2022-08-19T06:14:04;100034.72;;;17.66;100.00
31761;BME280;18335;51.486;7.562;2022-08-19T06:16:33;100028.16;;;17.60;100.00
31761;BME280;18335;51.486;7.562;2022-08-19T06:19:05;100022.19;;;17.70;100.00
31761;BME280;18335;51.486;7.562;2022-08-19T06:21:33;100028.78;;;17.62;100.00
31761;BME280;18335;51.486;7.562;2022-08-19T06:24:00;100025.75;;;17.77;100.00
31761;BME280;18335;51.486;7.562;2022-08-19T06:26:27;100017.03;;;17.87;100.00
31761;BME280;18335;51.486;7.562;2022-08-19T06:28:55;100015.09;;;17.94;100.00
31761;BME280;18335;51.486;7.562;2022-08-19T06:31:24;100022.06;;;18.03;100.00
31761;BME280;18335;51.486;7.562;2022-08-19T06:33:51;100025.63;;;18.10;100.00
31761;BME280;18335;51.486;7.562;2022-08-19T06:36:20;100033.28;;;18.08;100.00
31761;BME280;18335;51.486;7.562;2022-08-19T06:38:47;100024.75;;;18.16;100.00
31761;BME280;18335;51.486;7.562;2022-08-19T06:41:14;100020.50;;;18.20;100.00
31761;BME280;18335;51.486;7.562;2022-08-19T06:43:41;100018.91;;;18.37;100.00
31761;BME280;18335;51.486;7.562;2022-08-19T06:46:14;100022.47;;;18.44;100.00
31761;BME280;18335;51.486;7.562;2022-08-19T06:48:41;100014.41;;;18.49;100.00
31761;BME280;18335;51.486;7.562;2022-08-19T06:51:08;100027.25;;;18.68;100.00
31761;BME280;18335;51.486;7.562;2022-08-19T06:53:35;100015.47;;;18.79;100.00
31761;BME280;18335;51.486;7.562;2022-08-19T06:56:02;100013.72;;;18.85;100.00
31761;BME280;18335;51.486;7.562;2022-08-19T06:58:29;100001.59;;;19.11;100.00
31761;BME280;18335;51.486;7.562;2022-08-19T07:00:59;100000.63;;;19.23;100.00
31761;BME280;18335;51.486;7.562;2022-08-19T07:03:31;99997.09;;;19.41;100.00
31761;BME280;18335;51.486;7.562;2022-08-19T07:06:03;99995.00;;;19.55;100.00
31761;BME280;18335;51.486;7.562;2022-08-19T07:08:29;99988.03;;;19.70;100.00
31761;BME280;18335;51.486;7.562;2022-08-19T07:10:57;99985.66;;;19.92;100.00
31761;BME280;18335;51.486;7.562;2022-08-19T07:13:23;99985.00;;;20.08;100.00
31761;BME280;18335;51.486;7.562;2022-08-19T07:15:50;99972.88;;;20.39;100.00
31761;BME280;18335;51.486;7.562;2022-08-19T07:18:18;99986.19;;;20.60;100.00
31761;BME280;18335;51.486;7.562;2022-08-19T07:20:47;99969.94;;;20.34;100.00
31761;BME280;18335;51.486;7.562;2022-08-19T07:23:13;99982.94;;;20.52;100.00
31761;BME280;18335;51.486;7.562;2022-08-19T07:25:40;99974.88;;;20.73;100.00
31761;BME280;18335;51.486;7.562;2022-08-19T07:28:08;99988.56;;;20.98;100.00
31761;BME280;18335;51.486;7.562;2022-08-19T07:30:37;99977.47;;;20.98;100.00
31761;BME280;18335;51.486;7.562;2022-08-19T07:33:06;99981.09;;;20.98;100.00
31761;BME280;18335;51.486;7.562;2022-08-19T07:35:33;99988.66;;;20.91;100.00
31761;BME280;18335;51.486;7.562;2022-08-19T07:38:01;99979.56;;;21.26;100.00
31761;BME280;18335;51.486;7.562;2022-08-19T07:40:30;99983.91;;;21.22;100.00
31761;BME280;18335;51.486;7.562;2022-08-19T07:42:57;99983.03;;;21.44;100.00
31761;BME280;18335;51.486;7.562;2022-08-19T07:45:24;99990.19;;;21.52;100.00
31761;BME280;18335;51.486;7.562;2022-08-19T07:47:51;99986.06;;;21.43;100.00
31761;BME280;18335;51.486;7.562;2022-08-19T07:50:19;99986.06;;;21.43;100.00
31761;BME280;18335;51.486;7.562;2022-08-19T07:52:46;99992.47;;;21.55;100.00
31761;BME280;18335;51.486;7.562;2022-08-19T07:55:18;99995.13;;;21.62;100.00
31761;BME280;18335;51.486;7.562;2022-08-19T07:57:45;100001.22;;;21.98;100.00
31761;BME280;18335;51.486;7.562;2022-08-19T08:00:13;99998.94;;;22.07;100.00
31761;BME280;18335;51.486;7.562;2022-08-19T08:02:40;100005.22;;;22.02;100.00
31761;BME280;18335;51.486;7.562;2022-08-19T08:05:08;100005.34;;;22.36;100.00
31761;BME280;18335;51.486;7.562;2022-08-19T08:07:52;100006.06;;;22.43;100.00
31761;BME280;18335;51.486;7.562;2022-08-19T08:10:38;100009.81;;;22.37;100.00
31761;BME280;18335;51.486;7.562;2022-08-19T08:13:05;100014.66;;;22.58;100.00
31761;BME280;18335;51.486;7.562;2022-08-19T08:15:32;100002.66;;;22.41;100.00
31761;BME280;18335;51.486;7.562;2022-08-19T08:17:58;100013.66;;;22.64;100.00
31761;BME280;18335;51.486;7.562;2022-08-19T08:20:25;100001.09;;;22.61;100.00
31761;BME280;18335;51.486;7.562;2022-08-19T08:22:52;100002.97;;;22.84;100.00
31761;BME280;18335;51.486;7.562;2022-08-19T08:25:38;99995.63;;;22.78;100.00
31761;BME280;18335;51.486;7.562;2022-08-19T08:28:05;100005.44;;;22.41;100.00
31761;BME280;18335;51.486;7.562;2022-08-19T08:30:34;100005.56;;;22.74;100.00
31761;BME280;18335;51.486;7.562;2022-08-19T08:33:02;100009.09;;;22.86;100.00
31761;BME280;18335;51.486;7.562;2022-08-19T08:35:29;100003.03;;;22.89;100.00
31761;BME280;18335;51.486;7.562;2022-08-19T08:37:56;100004.06;;;23.17;100.00
31761;BME280;18335;51.486;7.562;2022-08-19T08:40:28;100016.44;;;23.09;100.00
31761;BME280;18335;51.486;7.562;2022-08-19T08:43:01;100014.25;;;23.28;100.00
31761;BME280;18335;51.486;7.562;2022-08-19T08:45:30;100017.41;;;23.14;100.00
31761;BME280;18335;51.486;7.562;2022-08-19T08:48:04;100012.75;;;23.37;100.00
31761;BME280;18335;51.486;7.562;2022-08-19T08:50:39;100019.66;;;23.51;100.00
31761;BME280;18335;51.486;7.562;2022-08-19T08:53:08;100005.84;;;23.56;100.00
31761;BME280;18335;51.486;7.562;2022-08-19T08:55:36;100008.25;;;23.36;100.00
31761;BME280;18335;51.486;7.562;2022-08-19T08:58:07;100002.22;;;23.39;100.00
31761;BME280;18335;51.486;7.562;2022-08-19T09:00:45;99998.63;;;23.60;100.00
31761;BME280;18335;51.486;7.562;2022-08-19T09:03:17;100002.78;;;23.74;100.00
31761;BME280;18335;51.486;7.562;2022-08-19T09:05:56;100002.53;;;23.97;100.00
31761;BME280;18335;51.486;7.562;2022-08-19T09:08:35;100003.06;;;23.78;100.00
31761;BME280;18335;51.486;7.562;2022-08-19T09:11:08;99995.84;;;23.98;100.00
31761;BME280;18335;51.486;7.562;2022-08-19T09:13:44;99994.28;;;24.51;100.00
31761;BME280;18335;51.486;7.562;2022-08-19T09:16:16;99995.22;;;24.61;100.00
31761;BME280;18335;51.486;7.562;2022-08-19T09:18:47;99997.63;;;24.53;100.00
31761;BME280;18335;51.486;7.562;2022-08-19T09:21:18;100005.31;;;23.97;100.00
31761;BME280;18335;51.486;7.562;2022-08-19T09:23:45;99995.53;;;24.16;100.00
31761;BME280;18335;51.486;7.562;2022-08-19T09:26:14;100003.66;;;24.40;100.00
31761;BME280;18335;51.486;7.562;2022-08-19T09:28:44;100004.59;;;24.29;100.00
31761;BME280;18335;51.486;7.562;2022-08-19T09:31:11;100007.00;;;24.42;100.00
31761;BME280;18335;51.486;7.562;2022-08-19T09:33:39;99997.41;;;24.33;100.00
31761;BME280;18335;51.486;7.562;2022-08-19T09:36:11;100001.44;;;24.42;100.00
31761;BME280;18335;51.486;7.562;2022-08-19T09:38:39;99988.16;;;24.54;100.00
31761;BME280;18335;51.486;7.562;2022-08-19T09:41:08;100005.34;;;24.94;100.00
31761;BME280;18335;51.486;7.562;2022-08-19T09:43:37;99995.31;;;25.30;100.00
31761;BME280;18335;51.486;7.562;2022-08-19T09:46:06;99986.91;;;25.25;100.00
31761;BME280;18335;51.486;7.562;2022-08-19T09:48:34;99976.75;;;25.09;100.00
31761;BME280;18335;51.486;7.562;2022-08-19T09:51:03;99992.50;;;24.40;100.00
31761;BME280;18335;51.486;7.562;2022-08-19T09:53:30;99985.88;;;24.99;100.00
31761;BME280;18335;51.486;7.562;2022-08-19T09:55:57;99989.59;;;25.15;100.00
31761;BME280;18335;51.486;7.562;2022-08-19T09:58:24;99983.75;;;25.16;100.00
31761;BME280;18335;51.486;7.562;2022-08-19T10:00:53;99993.25;;;25.15;100.00
31761;BME280;18335;51.486;7.562;2022-08-19T10:03:21;99990.22;;;25.22;100.00
31761;BME280;18335;51.486;7.562;2022-08-19T10:05:48;99986.50;;;25.85;100.00
31761;BME280;18335;51.486;7.562;2022-08-19T10:08:17;99985.56;;;25.33;100.00
31761;BME280;18335;51.486;7.562;2022-08-19T10:10:45;99990.69;;;25.46;100.00
31761;BME280;18335;51.486;7.562;2022-08-19T10:13:14;99994.94;;;25.16;100.00
31761;BME280;18335;51.486;7.562;2022-08-19T10:15:41;99982.19;;;25.62;100.00
31761;BME280;18335;51.486;7.562;2022-08-19T10:18:07;99989.06;;;25.97;100.00
31761;BME280;18335;51.486;7.562;2022-08-19T10:20:36;99987.59;;;25.84;100.00
31761;BME280;18335;51.486;7.562;2022-08-19T10:23:03;99982.81;;;26.36;100.00
31761;BME280;18335;51.486;7.562;2022-08-19T10:25:32;99977.56;;;26.65;100.00
31761;BME280;18335;51.486;7.562;2022-08-19T10:28:00;99977.81;;;26.49;94.40
31761;BME280;18335;51.486;7.562;2022-08-19T10:30:27;99973.66;;;26.76;98.26
31761;BME280;18335;51.486;7.562;2022-08-19T10:32:54;99977.28;;;26.52;98.21
31761;BME280;18335;51.486;7.562;2022-08-19T10:35:21;99982.22;;;26.24;98.17
31761;BME280;18335;51.486;7.562;2022-08-19T10:37:49;99978.41;;;25.89;100.00
31761;BME280;18335;51.486;7.562;2022-08-19T10:40:15;99981.97;;;25.37;100.00
31761;BME280;18335;51.486;7.562;2022-08-19T10:42:42;99978.16;;;25.48;100.00
31761;BME280;18335;51.486;7.562;2022-08-19T10:45:10;99988.78;;;25.14;100.00
31761;BME280;18335;51.486;7.562;2022-08-19T10:47:37;99985.22;;;24.92;100.00
31761;BME280;18335;51.486;7.562;2022-08-19T10:50:04;99987.84;;;25.04;100.00
31761;BME280;18335;51.486;7.562;2022-08-19T10:52:50;99978.16;;;25.11;100.00
31761;BME280;18335;51.486;7.562;2022-08-19T10:55:19;99980.56;;;25.35;100.00
31761;BME280;18335;51.486;7.562;2022-08-19T10:58:04;99972.91;;;25.57;100.00
31761;BME280;18335;51.486;7.562;2022-08-19T11:00:31;99971.41;;;25.86;100.00
31761;BME280;18335;51.486;7.562;2022-08-19T11:02:57;99968.09;;;25.94;100.00
31761;BME280;18335;51.486;7.562;2022-08-19T11:05:24;99967.09;;;26.15;100.00
31761;BME280;18335;51.486;7.562;2022-08-19T11:07:52;99964.28;;;26.15;100.00
31761;BME280;18335;51.486;7.562;2022-08-19T11:10:19;99963.66;;;26.03;100.00
31761;BME280;18335;51.486;7.562;2022-08-19T11:12:47;99964.91;;;26.32;100.00
31761;BME280;18335;51.486;7.562;2022-08-19T11:15:13;99964.31;;;26.20;100.00
31761;BME280;18335;51.486;7.562;2022-08-19T11:17:41;99964.75;;;26.84;100.00
31761;BME280;18335;51.486;7.562;2022-08-19T11:20:10;99961.59;;;26.46;100.00
31761;BME280;18335;51.486;7.562;2022-08-19T11:22:37;99967.44;;;26.39;99.26
31761;BME280;18335;51.486;7.562;2022-08-19T11:25:07;99960.97;;;26.28;96.94
31761;BME280;18335;51.486;7.562;2022-08-19T11:27:37;99956.81;;;26.36;95.79
31761;BME280;18335;51.486;7.562;2022-08-19T11:30:06;99950.44;;;25.89;93.41
31761;BME280;18335;51.486;7.562;2022-08-19T11:32:33;99952.09;;;26.62;92.87
31761;BME280;18335;51.486;7.562;2022-08-19T11:35:00;99953.28;;;27.11;92.28
31761;BME280;18335;51.486;7.562;2022-08-19T11:37:26;99947.06;;;26.69;88.86
31761;BME280;18335;51.486;7.562;2022-08-19T11:39:53;99937.59;;;26.90;91.22
31761;BME280;18335;51.486;7.562;2022-08-19T11:42:21;99939.28;;;26.91;85.22
31761;BME280;18335;51.486;7.562;2022-08-19T11:45:06;99936.75;;;26.84;79.86
31761;BME280;18335;51.486;7.562;2022-08-19T11:47:34;99936.19;;;27.18;78.99
31761;BME280;18335;51.486;7.562;2022-08-19T11:50:02;99938.16;;;26.97;77.58
31761;BME280;18335;51.486;7.562;2022-08-19T11:52:29;99929.75;;;27.48;80.20
31761;BME280;18335;51.486;7.562;2022-08-19T11:54:56;99933.66;;;27.16;76.05
31761;BME280;18335;51.486;7.562;2022-08-19T11:57:24;99938.97;;;27.38;82.21
31761;BME280;18335;51.486;7.562;2022-08-19T11:59:52;99932.53;;;27.22;79.65
31761;BME280;18335;51.486;7.562;2022-08-19T12:02:19;99937.28;;;27.37;80.63
31761;BME280;18335;51.486;7.562;2022-08-19T12:04:46;99939.22;;;27.36;78.73
31761;BME280;18335;51.486;7.562;2022-08-19T12:07:14;99942.88;;;27.37;77.63
31761;BME280;18335;51.486;7.562;2022-08-19T12:09:40;99936.44;;;27.52;73.79
31761;BME280;18335;51.486;7.562;2022-08-19T12:12:08;99940.94;;;27.32;75.41
31761;BME280;18335;51.486;7.562;2022-08-19T12:14:37;99935.91;;;27.19;70.67
31761;BME280;18335;51.486;7.562;2022-08-19T12:17:03;99937.00;;;27.28;67.27
31761;BME280;18335;51.486;7.562;2022-08-19T12:19:33;99937.56;;;27.56;68.22
31761;BME280;18335;51.486;7.562;2022-08-19T12:22:01;99932.13;;;27.89;66.51
31761;BME280;18335;51.486;7.562;2022-08-19T12:24:30;99936.91;;;27.79;68.96
31761;BME280;18335;51.486;7.562;2022-08-19T12:26:57;99932.78;;;27.56;72.76
31761;BME280;18335;51.486;7.562;2022-08-19T12:29:27;99942.09;;;27.11;78.89
31761;BME280;18335;51.486;7.562;2022-08-19T12:31:57;99935.91;;;26.79;80.81
31761;BME280;18335;51.486;7.562;2022-08-19T12:34:27;99936.38;;;26.40;86.47
31761;BME280;18335;51.486;7.562;2022-08-19T12:36:55;99940.59;;;26.53;88.57
31761;BME280;18335;51.486;7.562;2022-08-19T12:39:22;99938.72;;;26.84;81.51
31761;BME280;18335;51.486;7.562;2022-08-19T12:41:49;99921.34;;;27.12;81.82
31761;BME280;18335;51.486;7.562;2022-08-19T12:44:16;99925.22;;;27.36;79.40
31761;BME280;18335;51.486;7.562;2022-08-19T12:46:43;99923.81;;;27.54;76.89
31761;BME280;18335;51.486;7.562;2022-08-19T12:49:11;99920.78;;;27.20;77.51
31761;BME280;18335;51.486;7.562;2022-08-19T12:51:38;99912.84;;;27.68;76.43
31761;BME280;18335;51.486;7.562;2022-08-19T12:54:04;99917.41;;;27.43;79.15